Time;durP1;ratioP1;P1;durP2;ratioP2;P2;SDS_P1;SDS_P2;PMS_P1;PMS_P2;Temp;Humidity;BMP_temperature;BMP_pressure;BME280_temperature;BME280_humidity;BME280_pressure;Samples;Min_cycle;Max_cycle;Signal;HPM_P1;HPM_P2
2021/05/11 00:00:53;;;;;;;18.50;3.00;;;14.50;88.60;;;;;;4957394;28;20150;-94
2021/05/11 00:03:28;;;;;;;17.70;2.88;;;14.40;87.90;;;;;;4960558;28;20034;-93
2021/05/11 00:09:21;;;;;;;12.82;2.80;;;14.40;87.60;;;;;;4960258;28;20499;-95
2021/05/11 00:12:26;;;;;;;18.52;2.75;;;14.50;87.40;;;;;;4938903;29;20477;-94
2021/05/11 00:15:32;;;;;;;13.30;2.63;;;14.40;87.40;;;;;;4973685;28;20435;-93
2021/05/11 00:18:32;;;;;;;19.65;2.40;;;14.40;87.10;;;;;;4959722;28;20389;-94
2021/05/11 00:23:59;;;;;;;17.35;2.75;;;14.40;85.80;;;;;;4955293;28;20110;-94
2021/05/11 00:26:37;;;;;;;13.93;2.42;;;14.40;85.90;;;;;;4941504;28;20035;-95
2021/05/11 00:29:23;;;;;;;;;;;;;;;;;;;;;
2021/05/11 00:32:06;;;;;;;16.50;2.10;;;14.20;85.90;;;;;;4974821;28;20042;-94
2021/05/11 00:34:34;;;;;;;14.93;2.28;;;14.20;86.40;;;;;;4954071;29;20054;-94
2021/05/11 00:37:13;;;;;;;;;;;;;;;;;;;;;
2021/05/11 00:39:42;;;;;;;16.10;2.63;;;14.20;85.90;;;;;;4968315;28;20015;-94
2021/05/11 00:42:10;;;;;;;14.13;2.35;;;14.20;86.50;;;;;;4973498;28;20081;-94
2021/05/11 00:44:36;;;;;;;11.73;1.80;;;14.20;86.70;;;;;;4951796;28;20027;-94
2021/05/11 00:47:04;;;;;;;11.52;2.08;;;14.20;87.20;;;;;;4957106;28;20160;-92
2021/05/11 00:49:32;;;;;;;14.20;2.53;;;14.10;86.90;;;;;;4964001;28;20051;-93
2021/05/11 00:52:04;;;;;;;16.00;2.28;;;14.10;87.30;;;;;;4984129;28;20046;-93
2021/05/11 00:55:02;;;;;;;13.52;2.33;;;14.10;87.70;;;;;;4985691;28;20456;-93
2021/05/11 00:57:30;;;;;;;11.52;1.70;;;14.10;86.90;;;;;;4986675;28;20192;-94
2021/05/11 00:59:59;;;;;;;13.30;2.03;;;14.10;85.40;;;;;;4967512;28;20026;-93
2021/05/11 01:02:28;;;;;;;12.20;2.03;;;14.10;84.30;;;;;;4984044;28;20427;-94
2021/05/11 01:04:56;;;;;;;8.30;1.52;;;14.20;84.40;;;;;;4971580;28;20084;-94
2021/05/11 01:07:22;;;;;;;12.45;2.00;;;14.20;83.70;;;;;;4976064;28;20068;-93
2021/05/11 01:09:49;;;;;;;10.02;1.55;;;14.20;84.30;;;;;;4972334;28;20062;-93
2021/05/11 01:12:18;;;;;;;12.25;1.65;;;14.20;84.60;;;;;;4971304;28;20491;-94
2021/05/11 01:14:53;;;;;;;12.18;2.00;;;14.20;84.30;;;;;;4975935;28;20022;-93
2021/05/11 01:17:26;;;;;;;11.60;2.10;;;14.10;84.20;;;;;;4992123;28;20483;-93
2021/05/11 01:19:57;;;;;;;10.77;1.63;;;14.20;84.80;;;;;;4982057;28;20022;-92
2021/05/11 01:22:50;;;;;;;8.20;1.60;;;14.20;84.80;;;;;;5018837;23;20050;-93
2021/05/11 01:25:26;;;;;;;13.50;2.00;;;14.30;84.60;;;;;;4975962;28;20117;-93
2021/05/11 01:47:19;;;;;;;10.68;1.55;;;13.70;88.60;;;;;;4980575;28;20038;-92
2021/05/11 01:50:00;;;;;;;10.85;1.77;;;13.70;89.60;;;;;;4975355;28;20061;-93
2021/05/11 01:55:12;;;;;;;12.38;2.35;;;13.70;90.00;;;;;;4992105;28;20505;-91
2021/05/11 01:58:06;;;;;;;11.35;1.77;;;13.60;90.60;;;;;;4973331;28;20085;-89
2021/05/11 02:25:21;;;;;;;14.23;1.65;;;13.00;95.20;;;;;;4909016;29;20171;-88
2021/05/11 02:27:47;;;;;;;7.70;1.40;;;13.00;94.80;;;;;;4975228;28;20141;-87
2021/05/11 02:30:14;;;;;;;11.23;1.55;;;12.90;93.90;;;;;;4984193;28;20019;-87
2021/05/11 02:32:42;;;;;;;11.48;1.63;;;13.00;94.80;;;;;;4990222;28;20029;-88
2021/05/11 02:35:09;;;;;;;12.98;1.92;;;12.90;94.40;;;;;;4971770;28;20023;-87
2021/05/11 02:37:35;;;;;;;9.00;2.33;;;12.90;95.40;;;;;;4989015;28;20015;-89
2021/05/11 02:40:01;;;;;;;12.48;1.88;;;13.00;95.60;;;;;;4984843;28;20030;-88
2021/05/11 02:42:26;;;;;;;14.23;2.33;;;13.00;95.30;;;;;;4969692;28;20034;-89
2021/05/11 02:44:54;;;;;;;10.70;1.70;;;13.10;95.20;;;;;;4984010;28;20030;-88
2021/05/11 02:47:20;;;;;;;12.90;2.38;;;13.00;95.10;;;;;;4982146;28;20511;-87
2021/05/11 02:49:48;;;;;;;12.43;1.88;;;13.00;94.40;;;;;;4976251;28;20027;-87
2021/05/11 02:52:14;;;;;;;7.95;1.70;;;13.00;94.70;;;;;;4961699;28;20085;-87
2021/05/11 02:54:41;;;;;;;11.57;1.80;;;13.00;94.50;;;;;;4979893;28;20022;-87
2021/05/11 02:57:07;;;;;;;13.25;1.77;;;13.00;94.40;;;;;;4981639;28;20034;-87
2021/05/11 02:59:33;;;;;;;10.32;1.52;;;13.00;94.40;;;;;;4979848;28;20503;-87
2021/05/11 03:02:00;;;;;;;11.45;2.08;;;12.90;93.90;;;;;;4968909;28;20034;-87
2021/05/11 03:04:27;;;;;;;13.82;1.98;;;12.90;93.60;;;;;;4986737;28;20080;-89
2021/05/11 03:06:57;;;;;;;8.05;1.50;;;12.90;94.10;;;;;;4969843;28;20058;-89
2021/05/11 03:09:26;;;;;;;15.02;2.60;;;12.90;94.10;;;;;;4968884;28;20038;-89
2021/05/11 03:11:53;;;;;;;9.38;2.10;;;12.90;94.50;;;;;;4985892;28;20027;-88
2021/05/11 03:14:19;;;;;;;13.50;2.20;;;12.90;94.80;;;;;;4986020;28;20398;-89
2021/05/11 03:16:46;;;;;;;16.63;2.50;;;13.00;94.90;;;;;;4984984;28;20026;-88
2021/05/11 03:19:12;;;;;;;11.30;2.45;;;13.00;94.70;;;;;;4968290;28;20058;-88
2021/05/11 03:21:38;;;;;;;14.10;2.72;;;13.10;95.30;;;;;;4983837;28;20082;-88
2021/05/11 03:24:08;;;;;;;16.17;2.83;;;13.20;95.40;;;;;;4986464;28;20026;-87
2021/05/11 03:26:36;;;;;;;20.42;3.00;;;13.20;94.60;;;;;;4971356;28;20201;-87
2021/05/11 03:29:02;;;;;;;18.17;2.65;;;13.10;94.80;;;;;;4984369;28;20110;-87
2021/05/11 03:31:28;;;;;;;22.48;2.90;;;13.10;94.70;;;;;;4982336;28;20034;-87
2021/05/11 03:33:53;;;;;;;21.73;3.70;;;13.10;95.00;;;;;;4984451;28;20048;-88
2021/05/11 03:36:19;;;;;;;15.02;2.40;;;13.00;93.70;;;;;;4962763;28;20019;-86
2021/05/11 03:38:47;;;;;;;12.98;2.00;;;13.00;93.60;;;;;;4968124;28;20443;-87
2021/05/11 03:41:14;;;;;;;14.95;2.65;;;12.90;92.60;;;;;;4968570;28;20025;-87
2021/05/11 03:43:51;;;;;;;13.80;2.92;;;12.90;93.50;;;;;;4988459;28;20045;-87
2021/05/11 03:46:17;;;;;;;18.55;3.08;;;12.90;93.80;;;;;;4984869;28;20422;-87
2021/05/11 03:48:43;;;;;;;17.52;3.15;;;12.80;93.80;;;;;;4985375;28;20031;-87
2021/05/11 03:51:09;;;;;;;9.77;1.92;;;12.80;93.90;;;;;;4991348;28;20033;-86
2021/05/11 03:53:35;;;;;;;11.75;2.58;;;12.80;93.20;;;;;;4990290;28;20026;-88
2021/05/11 03:56:01;;;;;;;9.60;2.13;;;12.80;93.30;;;;;;4980298;28;20396;-87
2021/05/11 03:58:27;;;;;;;15.05;1.80;;;12.90;93.50;;;;;;4988945;28;20105;-87
2021/05/11 04:00:54;;;;;;;16.65;2.05;;;12.90;93.60;;;;;;4978671;28;20077;-88
2021/05/11 04:03:20;;;;;;;13.93;2.20;;;12.80;93.60;;;;;;4970548;28;20033;-88
2021/05/11 04:05:48;;;;;;;13.25;2.20;;;12.80;93.70;;;;;;4978896;28;20065;-88
2021/05/11 04:08:33;;;;;;;11.25;2.10;;;12.80;93.50;;;;;;4974216;28;20038;-88
2021/05/11 04:11:11;;;;;;;12.25;2.42;;;12.80;94.00;;;;;;4980538;28;20023;-88
2021/05/11 04:16:22;;;;;;;10.07;1.95;;;12.70;93.50;;;;;;4975901;28;20072;-88
2021/05/11 04:18:50;;;;;;;11.90;1.95;;;12.80;93.60;;;;;;4966223;28;20034;-89
2021/05/11 04:21:17;;;;;;;12.10;2.22;;;12.80;93.70;;;;;;4976310;28;20054;-89
2021/05/11 04:23:44;;;;;;;17.52;2.78;;;12.80;93.60;;;;;;4983889;28;20097;-88
2021/05/11 04:26:11;;;;;;;11.43;2.13;;;12.90;93.40;;;;;;4988563;28;20041;-90
2021/05/11 04:28:37;;;;;;;10.27;1.73;;;12.90;93.30;;;;;;4986956;28;20046;-90
2021/05/11 04:31:07;;;;;;;10.00;1.50;;;12.90;92.50;;;;;;4978019;28;20043;-89
2021/05/11 04:33:33;;;;;;;10.25;1.73;;;12.80;93.10;;;;;;4987646;28;20069;-89
2021/05/11 04:36:01;;;;;;;8.05;1.20;;;12.80;92.70;;;;;;4986742;28;20156;-89
2021/05/11 04:38:26;;;;;;;11.82;1.65;;;12.80;92.70;;;;;;4986341;28;20065;-90
2021/05/11 04:40:53;;;;;;;11.95;1.80;;;12.90;92.70;;;;;;4988216;28;20054;-89
2021/05/11 04:43:21;;;;;;;10.65;1.80;;;12.90;92.10;;;;;;4987852;28;20030;-89
2021/05/11 04:45:47;;;;;;;11.90;1.83;;;12.80;92.60;;;;;;4989139;28;20640;-91
2021/05/11 04:48:13;;;;;;;11.85;1.77;;;12.80;92.50;;;;;;4990317;28;20053;-90
2021/05/11 04:50:38;;;;;;;11.73;2.00;;;12.80;92.70;;;;;;4990111;28;20487;-88
2021/05/11 04:53:04;;;;;;;14.02;1.65;;;12.80;92.50;;;;;;4989811;28;20384;-91
2021/05/11 04:55:32;;;;;;;12.07;1.90;;;12.80;92.40;;;;;;4980361;28;20500;-90
2021/05/11 04:57:57;;;;;;;8.02;1.98;;;12.80;92.70;;;;;;4988616;28;20033;-91
2021/05/11 05:00:23;;;;;;;10.63;2.00;;;12.80;92.50;;;;;;4981235;28;20395;-91
2021/05/11 05:02:53;;;;;;;12.32;2.05;;;12.90;92.50;;;;;;4986207;28;20089;-91
2021/05/11 05:05:18;;;;;;;12.55;1.83;;;12.90;92.50;;;;;;4982061;28;20033;-89
2021/05/11 05:07:44;;;;;;;9.85;1.77;;;12.90;92.30;;;;;;4986201;28;20109;-91
2021/05/11 05:10:12;;;;;;;13.82;1.88;;;12.90;92.30;;;;;;4980588;28;20026;-92
2021/05/11 05:12:38;;;;;;;9.05;2.25;;;12.80;92.50;;;;;;4984209;28;20518;-93
2021/05/11 05:15:05;;;;;;;8.55;1.88;;;12.90;92.30;;;;;;4977654;28;20081;-89
2021/05/11 05:17:31;;;;;;;12.60;2.22;;;12.90;93.00;;;;;;4992368;28;20023;-93
2021/05/11 05:19:57;;;;;;;21.98;2.70;;;12.90;92.00;;;;;;4984692;28;20404;-94
2021/05/11 05:22:22;;;;;;;12.68;1.67;;;12.90;92.20;;;;;;4983591;28;20093;-92
2021/05/11 05:24:59;;;;;;;7.97;1.52;;;12.80;91.80;;;;;;4968352;28;20027;-91
2021/05/11 05:27:37;;;;;;;14.70;2.20;;;12.90;91.90;;;;;;4972811;28;20530;-89
2021/05/11 05:30:04;;;;;;;9.93;2.08;;;13.00;91.80;;;;;;4965451;28;20073;-91
2021/05/11 05:32:30;;;;;;;7.85;1.90;;;13.00;91.30;;;;;;4987663;28;20022;-88
2021/05/11 05:34:56;;;;;;;11.68;1.90;;;13.00;92.00;;;;;;4970943;28;20022;-87
2021/05/11 05:37:21;;;;;;;18.45;2.28;;;13.00;93.80;;;;;;4976596;28;20038;-88
2021/05/11 05:39:50;;;;;;;15.05;2.08;;;12.90;93.80;;;;;;4990036;28;20046;-86
2021/05/11 05:42:16;;;;;;;12.13;2.33;;;12.80;93.60;;;;;;4988686;28;20486;-85
2021/05/11 05:44:41;;;;;;;15.32;2.38;;;12.70;93.60;;;;;;4987662;28;20073;-84
2021/05/11 05:47:07;;;;;;;8.98;2.20;;;12.70;93.60;;;;;;4993622;28;20034;-84
2021/05/11 05:50:09;;;;;;;15.57;2.90;;;12.60;93.90;;;;;;4987334;28;20041;-84
2021/05/11 05:52:34;;;;;;;10.52;2.08;;;12.50;93.70;;;;;;4986404;28;20034;-84
2021/05/11 05:55:03;;;;;;;13.18;2.63;;;12.60;93.90;;;;;;4984929;28;20022;-83
2021/05/11 05:57:29;;;;;;;13.82;2.25;;;12.60;93.50;;;;;;4993473;28;20022;-83
2021/05/11 05:59:54;;;;;;;19.30;2.47;;;12.70;93.60;;;;;;4975328;28;20041;-83
2021/05/11 06:02:22;;;;;;;15.63;2.72;;;12.70;93.40;;;;;;4993411;28;20065;-83
2021/05/11 06:04:48;;;;;;;14.55;2.25;;;12.80;93.40;;;;;;4978789;28;20049;-83
2021/05/11 06:07:15;;;;;;;9.98;2.22;;;12.90;93.10;;;;;;4987640;28;20322;-84
2021/05/11 06:09:40;;;;;;;11.98;2.38;;;13.00;92.90;;;;;;4990641;28;20030;-83
2021/05/11 06:12:09;;;;;;;14.20;2.88;;;13.00;92.10;;;;;;4993093;28;20037;-84
2021/05/11 06:17:16;;;;;;;13.80;2.40;;;13.10;92.00;;;;;;4992209;28;20030;-84
2021/05/11 06:19:43;;;;;;;14.00;1.80;;;13.10;91.50;;;;;;4990279;28;20022;-84
2021/05/11 06:22:09;;;;;;;17.52;2.60;;;13.10;91.10;;;;;;4984263;28;20042;-84
2021/05/11 06:24:35;;;;;;;11.38;2.20;;;13.20;91.00;;;;;;4990283;28;20022;-83
2021/05/11 06:27:02;;;;;;;14.98;2.58;;;13.20;91.00;;;;;;4990842;28;20134;-83
2021/05/11 06:29:30;;;;;;;15.52;2.50;;;13.20;90.90;;;;;;4982653;28;20034;-85
2021/05/11 06:31:56;;;;;;;15.63;3.08;;;13.30;91.00;;;;;;4986921;28;20066;-85
2021/05/11 06:34:22;;;;;;;14.35;2.75;;;13.30;90.70;;;;;;4980064;28;20030;-86
2021/05/11 06:36:47;;;;;;;13.15;2.13;;;13.30;88.40;;;;;;4985089;28;20105;-88
2021/05/11 06:39:15;;;;;;;19.73;3.25;;;13.20;87.40;;;;;;4986651;28;20022;-86
2021/05/11 06:41:44;;;;;;;11.70;2.42;;;13.20;89.40;;;;;;4986324;28;20061;-86
2021/05/11 06:44:29;;;;;;;17.35;2.80;;;13.20;89.20;;;;;;4989917;28;20033;-87
2021/05/11 06:50:43;;;;;;;10.60;2.35;;;13.10;87.70;;;;;;4979856;28;20444;-79
2021/05/11 06:55:29;;;;;;;16.63;2.65;;;13.20;89.40;;;;;;4984025;28;20038;-79
2021/05/11 06:57:55;;;;;;;15.85;2.60;;;13.10;90.10;;;;;;4990877;28;20059;-80
2021/05/11 07:00:21;;;;;;;17.70;2.78;;;13.20;89.10;;;;;;4983971;28;20245;-79
2021/05/11 07:02:47;;;;;;;26.23;3.70;;;13.20;89.80;;;;;;4987967;28;20081;-79
2021/05/11 07:05:13;;;;;;;12.82;2.08;;;13.10;90.10;;;;;;4986614;28;20462;-79
2021/05/11 07:07:41;;;;;;;19.85;4.03;;;13.20;89.50;;;;;;4991669;28;20121;-80
2021/05/11 07:15:23;;;;;;;13.48;2.97;;;13.50;86.60;;;;;;4988308;28;20120;-81
2021/05/11 07:17:49;;;;;;;19.08;3.58;;;13.60;86.00;;;;;;4991458;28;20070;-80
2021/05/11 07:20:15;;;;;;;13.38;2.35;;;13.60;83.60;;;;;;4986471;28;20022;-81
2021/05/11 07:22:40;;;;;;;19.63;2.45;;;13.70;81.60;;;;;;4991701;28;20778;-83
2021/05/11 07:25:10;;;;;;;15.35;2.60;;;13.70;82.50;;;;;;4985489;28;20018;-80
2021/05/11 07:30:34;;;;;;;16.73;2.67;;;13.90;82.20;;;;;;4957371;28;20503;-79
2021/05/11 07:33:00;;;;;;;17.23;2.50;;;13.90;81.50;;;;;;4990197;28;20042;-79
2021/05/11 07:35:25;;;;;;;14.55;2.67;;;13.80;83.50;;;;;;4982135;28;20014;-79
2021/05/11 07:37:51;;;;;;;16.15;2.40;;;13.90;82.60;;;;;;4990881;28;20026;-80
2021/05/11 07:40:17;;;;;;;20.73;2.72;;;14.10;84.30;;;;;;4986024;28;20030;-79
2021/05/11 07:42:43;;;;;;;21.20;2.10;;;14.40;81.70;;;;;;4990944;28;20041;-79
2021/05/11 07:45:11;;;;;;;13.40;2.70;;;14.60;78.10;;;;;;4984608;28;20030;-79
2021/05/11 08:04:26;;;;;;;9.65;2.10;;;13.70;80.40;;;;;;4980649;28;20592;-84
2021/05/11 08:15:19;;;;;;;16.27;2.22;;;14.40;75.90;;;;;;4988222;28;20742;-85
2021/05/11 08:17:49;;;;;;;14.88;2.67;;;14.50;74.80;;;;;;4990127;28;20084;-85
2021/05/11 08:20:31;;;;;;;16.00;2.15;;;14.80;74.70;;;;;;4985940;28;20029;-84
2021/05/11 08:28:14;;;;;;;13.30;2.47;;;14.40;74.90;;;;;;4989176;28;20115;-84
2021/05/11 08:30:40;;;;;;;9.63;1.98;;;14.50;74.60;;;;;;4976047;28;20502;-84
2021/05/11 08:33:05;;;;;;;7.43;1.67;;;14.60;75.20;;;;;;4989032;28;20031;-90
2021/05/11 08:35:31;;;;;;;10.70;1.65;;;14.80;72.00;;;;;;4977139;28;20416;-85
2021/05/11 08:37:57;;;;;;;11.13;2.28;;;14.80;71.80;;;;;;4985162;28;20037;-84
2021/05/11 08:40:24;;;;;;;13.05;1.45;;;14.80;70.20;;;;;;4976170;28;20034;-78
2021/05/11 08:42:50;;;;;;;13.73;2.17;;;14.70;71.40;;;;;;4988081;28;20085;-79
2021/05/11 08:45:17;;;;;;;8.30;1.33;;;14.60;70.10;;;;;;4987712;28;20041;-79
2021/05/11 08:47:49;;;;;;;5.72;1.33;;;14.70;71.90;;;;;;4986572;28;20030;-95
2021/05/11 08:50:39;;;;;;;8.93;1.75;;;14.70;71.40;;;;;;4987796;28;20061;-81
2021/05/11 09:14:12;;;;;;;8.45;1.63;;;15.00;70.60;;;;;;4987034;28;20086;-88
2021/05/11 09:24:03;;;;;;;11.48;1.95;;;15.20;69.40;;;;;;4990798;28;20117;-94
2021/05/11 09:26:39;;;;;;;10.23;1.58;;;15.40;69.90;;;;;;4998133;28;20056;-90
2021/05/11 09:29:32;;;;;;;13.25;1.73;;;15.20;70.90;;;;;;4978504;28;20061;-91
2021/05/11 09:32:37;;;;;;;14.10;2.17;;;15.00;72.60;;;;;;4989025;28;20191;-90
2021/05/11 10:47:14;;;;;;;14.15;2.00;;;15.60;70.00;;;;;;4947307;28;20067;-94
2021/05/11 10:49:47;;;;;;;9.68;1.60;;;15.80;68.50;;;;;;4926689;28;20126;-91
2021/05/11 10:52:25;;;;;;;10.38;1.92;;;16.00;67.70;;;;;;4970460;28;20058;-94
2021/05/11 10:58:28;;;;;;;13.82;1.70;;;15.60;67.30;;;;;;4990793;28;20039;-93
2021/05/11 11:01:07;;;;;;;9.23;1.75;;;15.70;65.90;;;;;;4948728;28;20034;-93
2021/05/11 11:03:32;;;;;;;11.07;1.98;;;15.80;65.00;;;;;;4973434;28;20076;-89
2021/05/11 11:06:02;;;;;;;15.20;1.60;;;15.60;66.50;;;;;;4973012;28;20486;-88
2021/05/11 11:08:43;;;;;;;14.63;2.38;;;15.40;66.10;;;;;;4983119;28;20121;-91
2021/05/11 11:11:20;;;;;;;6.85;1.30;;;15.50;66.80;;;;;;4969437;28;20663;-94
2021/05/11 11:13:46;;;;;;;9.65;1.90;;;15.70;65.00;;;;;;4973840;28;20027;-94
2021/05/11 11:16:13;;;;;;;12.85;2.08;;;15.80;65.60;;;;;;4972469;28;20034;-91
2021/05/11 11:18:40;;;;;;;13.93;2.03;;;15.90;65.70;;;;;;4973890;28;20326;-91
2021/05/11 11:23:53;;;;;;;8.38;1.48;;;15.90;66.90;;;;;;4992696;28;20042;-92
2021/05/11 11:26:30;;;;;;;12.63;2.05;;;16.20;64.80;;;;;;4986095;28;20182;-93
2021/05/11 11:29:11;;;;;;;11.77;1.90;;;16.30;64.50;;;;;;4988708;28;20520;-93
2021/05/11 11:31:41;;;;;;;10.30;1.92;;;16.20;65.10;;;;;;4974060;28;20085;-92
2021/05/11 11:34:33;;;;;;;11.25;1.73;;;16.00;65.20;;;;;;4971333;28;20027;-90
2021/05/11 11:37:03;;;;;;;15.02;1.80;;;16.00;63.70;;;;;;4965253;28;20030;-94
2021/05/11 11:39:35;;;;;;;12.57;2.38;;;15.90;65.20;;;;;;4980555;28;20125;-93
2021/05/11 11:42:06;;;;;;;10.43;1.58;;;16.10;65.10;;;;;;4983153;28;20073;-94
2021/05/11 11:44:39;;;;;;;12.43;2.13;;;16.30;65.20;;;;;;4971972;28;20162;-94
2021/05/11 11:47:11;;;;;;;11.80;1.60;;;16.40;64.80;;;;;;4978320;28;20054;-93
2021/05/11 11:49:42;;;;;;;14.23;2.05;;;16.20;65.30;;;;;;4965747;28;20367;-94
2021/05/11 11:52:23;;;;;;;16.05;2.20;;;16.30;64.60;;;;;;4974437;28;20018;-93
2021/05/11 11:55:11;;;;;;;14.00;1.92;;;16.30;64.40;;;;;;4965557;28;20031;-94
2021/05/11 11:57:46;;;;;;;9.50;1.95;;;16.70;63.30;;;;;;4980152;28;20037;-95
2021/05/11 12:00:17;;;;;;;9.00;1.98;;;16.50;61.50;;;;;;4964010;28;20516;-93
2021/05/11 12:03:10;;;;;;;12.02;2.13;;;16.40;62.00;;;;;;4986744;28;20475;-93
2021/05/11 12:05:52;;;;;;;16.20;2.00;;;16.30;61.80;;;;;;4973067;28;20507;-93
2021/05/11 12:08:21;;;;;;;15.82;1.90;;;16.40;62.90;;;;;;4966455;28;20030;-93
2021/05/11 12:10:48;;;;;;;13.77;2.10;;;16.50;61.40;;;;;;4958143;28;20106;-93
2021/05/11 12:13:19;;;;;;;12.80;2.40;;;16.30;63.40;;;;;;4966728;28;20023;-94
2021/05/11 12:16:05;;;;;;;12.18;1.80;;;16.50;63.20;;;;;;4963165;28;20018;-94
2021/05/11 12:18:32;;;;;;;13.20;1.92;;;16.70;61.90;;;;;;4974133;28;20084;-94
2021/05/11 12:21:12;;;;;;;8.55;1.70;;;16.70;60.80;;;;;;4962973;28;20045;-93
2021/05/11 12:23:38;;;;;;;19.50;2.53;;;16.50;62.30;;;;;;4971199;28;20042;-93
2021/05/11 12:26:06;;;;;;;11.75;2.17;;;17.10;60.60;;;;;;4970161;28;20029;-94
2021/05/11 12:28:35;;;;;;;10.10;2.33;;;17.10;60.00;;;;;;4985776;23;20538;-94
2021/05/11 12:31:07;;;;;;;16.95;2.30;;;16.90;61.00;;;;;;4962632;28;20060;-95
2021/05/11 12:33:35;;;;;;;10.25;1.70;;;16.80;59.70;;;;;;4970926;28;20027;-95
2021/05/11 12:36:16;;;;;;;9.63;1.70;;;17.00;58.80;;;;;;4978675;28;20027;-95
2021/05/11 12:38:42;;;;;;;13.20;1.77;;;17.50;58.90;;;;;;4967854;28;20031;-93
2021/05/11 12:41:25;;;;;;;16.48;2.42;;;17.50;58.20;;;;;;4970391;28;20031;-94
2021/05/11 12:43:52;;;;;;;16.58;2.00;;;16.90;60.10;;;;;;4966223;28;20043;-93
2021/05/11 12:46:27;;;;;;;16.30;2.40;;;16.70;62.70;;;;;;4971527;28;20027;-94
2021/05/11 12:49:02;;;;;;;16.05;2.67;;;16.60;63.90;;;;;;4981341;28;20039;-94
2021/05/11 12:51:31;;;;;;;18.38;2.58;;;16.70;63.20;;;;;;4961769;28;20023;-94
2021/05/11 12:54:00;;;;;;;16.35;2.42;;;16.90;62.90;;;;;;4969285;28;20582;-95
2021/05/11 12:56:31;;;;;;;9.70;2.05;;;17.20;62.40;;;;;;4967926;28;20030;-93
2021/05/11 13:01:38;;;;;;;12.82;2.38;;;17.20;62.00;;;;;;4961805;28;20023;-92
2021/05/11 13:15:47;;;;;;;13.35;2.20;;;16.50;66.90;;;;;;4966295;28;20093;-90
2021/05/11 13:20:59;;;;;;;18.05;2.53;;;16.10;68.00;;;;;;4964477;28;20051;-90
2021/05/11 13:26:16;;;;;;;20.50;2.95;;;17.00;67.20;;;;;;4971241;28;20109;-90
2021/05/11 13:28:51;;;;;;;14.60;2.45;;;17.00;67.30;;;;;;4972468;28;20142;-92
2021/05/11 13:33:58;;;;;;;12.57;1.90;;;17.60;65.00;;;;;;4967425;28;20118;-90
2021/05/11 13:36:24;;;;;;;22.02;3.22;;;17.70;64.70;;;;;;4962907;28;20058;-94
2021/05/11 13:38:50;;;;;;;14.30;3.03;;;17.60;65.20;;;;;;4966463;28;20055;-92
2021/05/11 13:41:15;;;;;;;19.77;2.47;;;17.60;64.70;;;;;;4970414;28;20395;-93
2021/05/11 13:43:41;;;;;;;10.75;2.58;;;17.60;65.60;;;;;;4967072;28;20043;-94
2021/05/11 13:46:07;;;;;;;13.27;2.60;;;18.30;62.30;;;;;;4964919;28;20499;-93
2021/05/11 13:48:36;;;;;;;14.30;2.45;;;18.70;61.50;;;;;;4967484;28;20468;-91
2021/05/11 13:51:10;;;;;;;10.27;2.22;;;19.00;58.90;;;;;;4957594;28;20507;-93
2021/05/11 13:53:38;;;;;;;15.70;2.92;;;19.40;57.60;;;;;;4968289;28;20034;-92
2021/05/11 14:03:59;;;;;;;13.40;2.55;;;19.30;59.80;;;;;;4962333;28;20061;-90
2021/05/11 14:06:25;;;;;;;10.20;2.30;;;20.90;56.60;;;;;;4967341;28;20023;-92
2021/05/11 14:08:51;;;;;;;10.30;2.17;;;22.00;51.70;;;;;;4983702;28;20469;-90
2021/05/11 14:11:17;;;;;;;9.20;2.15;;;21.20;54.20;;;;;;4963767;28;20421;-94
2021/05/11 14:13:42;;;;;;;14.25;2.60;;;21.30;51.60;;;;;;4968668;28;20069;-94
2021/05/11 14:16:08;;;;;;;12.43;2.35;;;21.50;52.10;;;;;;4974056;28;20073;-91
2021/05/11 14:18:34;;;;;;;22.08;3.30;;;21.00;54.50;;;;;;4970316;28;20123;-90
2021/05/11 14:21:00;;;;;;;18.45;3.13;;;20.80;55.50;;;;;;4965622;28;20170;-89
2021/05/11 14:23:26;;;;;;;20.25;3.38;;;20.50;57.30;;;;;;4974398;28;20026;-90
2021/05/11 14:25:52;;;;;;;19.45;3.53;;;20.60;58.60;;;;;;4973879;28;20034;-90
2021/05/11 14:28:18;;;;;;;15.60;3.22;;;20.70;58.60;;;;;;4960329;28;20398;-90
2021/05/11 14:30:44;;;;;;;19.75;3.47;;;21.60;55.50;;;;;;4979634;28;20026;-91
2021/05/11 14:33:10;;;;;;;14.43;3.53;;;21.60;55.00;;;;;;4972757;28;20400;-94
2021/05/11 14:35:35;;;;;;;20.58;3.35;;;21.60;55.10;;;;;;4971943;28;20031;-95
2021/05/11 14:38:03;;;;;;;15.93;3.55;;;21.80;55.20;;;;;;4975293;28;20058;-91
2021/05/11 14:40:29;;;;;;;17.50;2.97;;;22.20;53.80;;;;;;4975148;28;20027;-93
2021/05/11 14:42:57;;;;;;;14.65;2.80;;;22.70;54.10;;;;;;4977805;28;20325;-92
2021/05/11 14:45:30;;;;;;;17.30;3.10;;;23.50;51.60;;;;;;4969067;28;20015;-92
2021/05/11 14:47:56;;;;;;;16.45;3.22;;;23.00;52.30;;;;;;4968070;28;20226;-92
2021/05/11 14:50:23;;;;;;;16.77;3.83;;;22.00;55.50;;;;;;4970378;28;20032;-93
2021/05/11 14:52:58;;;;;;;13.75;2.97;;;22.30;54.30;;;;;;4961752;28;20031;-92
2021/05/11 14:55:25;;;;;;;16.02;3.22;;;22.30;53.80;;;;;;4960519;28;20055;-91
2021/05/11 14:57:52;;;;;;;12.00;2.92;;;20.90;55.60;;;;;;4972612;28;20403;-91
2021/05/11 15:00:18;;;;;;;15.68;3.45;;;19.60;61.10;;;;;;4983241;28;20083;-89
2021/05/11 15:02:44;;;;;;;15.95;2.78;;;19.20;60.10;;;;;;4974252;28;20391;-91
2021/05/11 15:05:10;;;;;;;13.20;3.03;;;20.00;57.60;;;;;;4960580;28;20032;-92
2021/05/11 15:07:37;;;;;;;15.98;3.05;;;19.90;57.10;;;;;;4975211;28;20126;-89
2021/05/11 15:10:03;;;;;;;14.27;3.00;;;20.60;54.00;;;;;;4960088;28;20035;-91
2021/05/11 15:12:29;;;;;;;16.05;2.75;;;19.10;58.10;;;;;;4976651;28;20030;-94
2021/05/11 15:14:55;;;;;;;14.88;2.55;;;17.70;63.10;;;;;;4966624;28;20483;-94
2021/05/11 15:19:47;;;;;;;18.95;3.58;;;17.20;66.20;;;;;;4978656;28;20031;-92
2021/05/11 15:22:14;;;;;;;18.88;2.90;;;17.30;65.20;;;;;;4966742;28;20031;-90
2021/05/11 15:24:40;;;;;;;17.08;2.85;;;17.80;64.70;;;;;;4966531;28;20044;-93
2021/05/11 15:27:06;;;;;;;18.67;3.67;;;19.10;62.10;;;;;;4955956;28;20099;-92
2021/05/11 15:29:31;;;;;;;17.95;3.47;;;18.60;65.40;;;;;;4967920;28;20105;-92
2021/05/11 15:31:57;;;;;;;21.90;4.05;;;17.50;68.60;;;;;;4966576;28;20484;-93
2021/05/11 15:34:24;;;;;;;24.30;3.97;;;16.60;72.60;;;;;;4950771;28;20039;-92
2021/05/11 15:36:50;;;;;;;16.83;3.97;;;17.60;72.80;;;;;;4949641;28;20488;-94
2021/05/11 15:39:16;;;;;;;20.90;3.50;;;19.70;64.00;;;;;;4953299;28;20062;-91
2021/05/11 15:41:45;;;;;;;16.00;3.65;;;21.70;58.00;;;;;;4956608;28;20059;-93
2021/05/11 15:44:11;;;;;;;13.70;3.33;;;22.30;57.00;;;;;;4958955;28;20027;-92
2021/05/11 15:46:36;;;;;;;17.08;3.72;;;23.10;53.00;;;;;;4947694;28;20019;-93
2021/05/11 15:49:02;;;;;;;26.13;3.35;;;22.50;54.20;;;;;;4950460;28;20023;-92
2021/05/11 15:51:28;;;;;;;18.63;3.78;;;22.70;54.80;;;;;;4946995;28;20051;-93
2021/05/11 15:53:55;;;;;;;16.83;3.45;;;22.90;54.10;;;;;;4967331;28;20036;-94
2021/05/11 15:56:21;;;;;;;19.85;3.63;;;23.40;53.60;;;;;;4956715;28;20178;-93
2021/05/11 15:58:50;;;;;;;17.10;3.67;;;23.60;51.60;;;;;;4982010;28;20535;-93
2021/05/11 16:01:16;;;;;;;17.75;3.72;;;24.80;49.60;;;;;;4956635;28;20019;-94
2021/05/11 16:03:41;;;;;;;13.88;3.38;;;24.70;49.10;;;;;;4950291;28;20046;-92
2021/05/11 16:06:07;;;;;;;12.98;3.33;;;24.30;48.30;;;;;;4948118;28;20408;-93
2021/05/11 16:08:35;;;;;;;22.27;3.90;;;23.00;50.70;;;;;;4953298;28;20078;-93
2021/05/11 16:11:02;;;;;;;18.98;3.33;;;22.20;51.40;;;;;;4953489;28;20395;-95
2021/05/11 16:13:30;;;;;;;21.65;3.67;;;20.90;55.50;;;;;;4963273;28;20091;-93
2021/05/11 16:15:58;;;;;;;19.67;3.90;;;20.00;57.40;;;;;;4961277;28;20648;-93
2021/05/11 16:18:28;;;;;;;18.17;3.92;;;19.20;58.40;;;;;;4976902;28;20027;-94
2021/05/11 16:20:54;;;;;;;18.63;3.67;;;19.80;56.70;;;;;;4939950;28;20027;-87
2021/05/11 16:23:22;;;;;;;17.52;3.65;;;19.90;55.80;;;;;;4964501;28;20061;-93
2021/05/11 16:25:57;;;;;;;18.90;4.25;;;20.40;55.10;;;;;;4946468;28;20035;-92
2021/05/11 16:28:25;;;;;;;20.30;3.63;;;19.20;59.00;;;;;;4959849;28;20058;-94
2021/05/11 16:30:51;;;;;;;23.00;4.05;;;17.80;63.70;;;;;;4962054;28;20019;-93
2021/05/11 16:33:16;;;;;;;23.08;3.70;;;16.90;67.10;;;;;;4953853;28;20031;-93
2021/05/11 16:35:43;;;;;;;34.05;4.75;;;16.60;71.90;;;;;;4964744;28;20077;-90
2021/05/11 16:38:11;;;;;;;27.30;3.90;;;16.60;79.70;;;;;;4965960;28;20159;-92
2021/05/11 16:40:36;;;;;;;26.73;3.83;;;16.20;86.50;;;;;;4945505;29;20027;-90
2021/05/11 16:43:03;;;;;;;25.15;3.78;;;16.60;84.20;;;;;;4950336;28;20173;-91
2021/05/11 16:45:30;;;;;;;18.13;3.08;;;17.80;80.40;;;;;;4962881;28;20031;-88
2021/05/11 16:47:56;;;;;;;19.02;3.22;;;18.80;68.50;;;;;;4951262;28;20031;-90
2021/05/11 16:50:26;;;;;;;16.00;3.45;;;19.50;68.50;;;;;;4954423;28;20023;-92
2021/05/11 16:52:54;;;;;;;17.67;3.45;;;20.30;64.50;;;;;;4971139;28;20078;-95
2021/05/11 16:55:23;;;;;;;19.67;3.42;;;21.00;64.30;;;;;;4961258;28;20018;-94